Terminal Aerodrome Forecast
Issued by NWS Albuquerque, NM

Home | Current Version | Previous Version | Text Only | Print | Product List | Glossary On
Versions: 1 2 3 4 5 6 7 8 9 10 11 12 13 14
000
FTUS45 KABQ 152300 RRA
TAFABQ
TAF
KABQ 152344Z 1600/1624 10020G32KT P6SM SCT090 BKN150
      TEMPO 1600/1602 6SM -TSRA OVC040CB
     FM160200 09014G26KT P6SM VCSH SCT090 BKN150
     FM161000 09010KT P6SM FEW050 BKN110
     FM161500 12005KT P6SM BKN050
     FM161900 VRB05KT P6SM FEW050 BKN100=

USA.gov is the U.S. government's official web portal to all federal, state and local government web resources and services.